Time;durP1;ratioP1;P1;durP2;ratioP2;P2;SDS_P1;SDS_P2;PMS_P1;PMS_P2;Temp;Humidity;BMP_temperature;BMP_pressure;BME280_temperature;BME280_humidity;BME280_pressure;Samples;Min_cycle;Max_cycle;Signal;HPM_P1;HPM_P2
2021/04/19 00:01:35;;;;;;;30.40;10.52;;;3.90;99.90;;;2.25;100.00;101934.56;4868159;28;20080;-77
2021/04/19 00:03:58;;;;;;;34.47;10.60;;;3.80;99.90;;;2.13;100.00;101937.06;4869438;28;20477;-77
2021/04/19 00:06:21;;;;;;;45.42;10.88;;;3.80;99.90;;;2.24;100.00;101939.75;4868903;28;20094;-78
2021/04/19 00:08:44;;;;;;;32.03;10.88;;;3.80;99.90;;;2.13;100.00;101936.19;4867220;28;20116;-78
2021/04/19 00:11:07;;;;;;;29.00;10.77;;;3.80;99.90;;;2.15;100.00;101929.28;4867677;28;20092;-76
2021/04/19 00:13:30;;;;;;;30.27;10.80;;;3.80;99.90;;;2.10;100.00;101937.06;4868741;28;20087;-78
2021/04/19 00:15:53;;;;;;;35.15;10.57;;;;;;;2.19;100.00;101931.91;4852098;28;20150;-76
2021/04/19 00:18:16;;;;;;;33.67;10.90;;;3.80;99.90;;;2.15;100.00;101931.88;4855733;28;20087;-76
2021/04/19 00:20:39;;;;;;;25.42;10.65;;;3.80;99.90;;;2.13;100.00;101925.81;4859558;28;20118;-77
2021/04/19 00:23:03;;;;;;;29.77;11.13;;;3.70;99.90;;;2.03;100.00;101925.75;4870063;28;20456;-77
2021/04/19 00:25:27;;;;;;;30.67;10.55;;;3.60;99.90;;;1.93;100.00;101926.50;4868693;28;20095;-78
2021/04/19 00:27:50;;;;;;;22.60;8.77;;;3.50;99.90;;;1.73;100.00;101920.25;4850736;28;20087;-77
2021/04/19 00:30:15;;;;;;;27.33;9.25;;;3.30;99.90;;;1.58;100.00;101921.03;4849352;28;20093;-77
2021/04/19 00:32:38;;;;;;;29.73;9.90;;;3.20;99.90;;;1.54;100.00;101916.66;4848968;28;20080;-78
2021/04/19 00:35:01;;;;;;;29.05;9.38;;;3.30;99.90;;;1.66;100.00;101924.53;4850001;28;20538;-77
2021/04/19 00:37:24;;;;;;;26.08;10.55;;;3.30;99.90;;;1.62;100.00;101925.34;4859784;28;20083;-78
2021/04/19 00:39:47;;;;;;;28.65;10.15;;;3.30;99.90;;;1.62;100.00;101921.06;4868590;28;20441;-78
2021/04/19 00:42:13;;;;;;;33.05;10.02;;;3.40;99.90;;;1.80;100.00;101932.47;4870562;28;20084;-76
2021/04/19 00:44:37;;;;;;;28.33;9.70;;;3.50;99.90;;;1.86;100.00;101916.94;4859319;28;20079;-77
2021/04/19 00:47:00;;;;;;;17.52;8.68;;;3.50;99.90;;;1.92;100.00;101929.09;4852134;28;20098;-77
2021/04/19 00:49:24;;;;;;;24.00;8.88;;;3.60;99.90;;;1.92;100.00;101922.16;4854377;28;20530;-77
2021/04/19 00:51:47;;;;;;;28.63;9.32;;;3.60;99.90;;;2.01;100.00;101924.00;4869823;28;20101;-78
2021/04/19 00:54:10;;;;;;;28.27;11.10;;;;;;;2.17;100.00;101915.44;4872222;28;20094;-78
2021/04/19 00:56:34;;;;;;;26.95;9.82;;;3.90;99.90;;;2.26;100.00;101917.22;4871238;28;20087;-77
2021/04/19 00:58:58;;;;;;;29.63;10.05;;;3.90;99.90;;;2.31;100.00;101914.66;4867768;28;20095;-78
2021/04/19 01:01:21;;;;;;;34.63;10.43;;;4.00;99.90;;;2.39;100.00;101918.19;4874169;28;20097;-77
2021/04/19 01:03:44;;;;;;;29.25;11.10;;;4.00;99.90;;;2.40;100.00;101912.13;4852805;28;20134;-78
2021/04/19 01:06:07;;;;;;;31.88;11.23;;;4.00;99.90;;;2.47;100.00;101914.75;4853163;28;20088;-77
2021/04/19 01:08:30;;;;;;;32.30;11.18;;;4.10;99.90;;;2.59;100.00;101911.38;4852284;28;20506;-76
2021/04/19 01:10:53;;;;;;;37.67;12.20;;;4.30;99.90;;;2.69;100.00;101906.22;4853007;28;20561;-77
2021/04/19 01:13:16;;;;;;;28.15;11.32;;;4.30;99.90;;;2.73;100.00;101915.78;4851330;28;20087;-77
2021/04/19 01:15:40;;;;;;;44.60;12.88;;;4.40;99.90;;;2.76;100.00;101916.63;4853095;28;20111;-79
2021/04/19 01:18:04;;;;;;;35.70;12.23;;;4.30;99.90;;;2.64;100.00;101914.88;4852568;28;20096;-78
2021/04/19 01:20:30;;;;;;;44.92;13.57;;;4.30;99.90;;;2.69;100.00;101904.47;4852249;28;20098;-78
2021/04/19 01:22:54;;;;;;;40.67;12.02;;;4.30;99.90;;;2.71;100.00;101914.91;4870722;28;20084;-77
2021/04/19 01:25:20;;;;;;;43.78;12.05;;;4.40;99.90;;;2.82;100.00;101908.88;4871343;28;20144;-78
2021/04/19 01:27:43;;;;;;;36.95;12.43;;;4.50;99.90;;;2.97;100.00;101905.47;4871761;28;20120;-77
2021/04/19 01:30:09;;;;;;;40.42;11.85;;;4.60;99.90;;;3.08;100.00;101908.09;4870786;28;20079;-77
2021/04/19 01:32:32;;;;;;;34.13;12.95;;;4.70;99.90;;;3.11;100.00;101908.13;4861377;28;20185;-77
2021/04/19 01:34:55;;;;;;;40.53;12.95;;;4.70;99.90;;;3.18;100.00;101906.41;4871089;28;20115;-77
2021/04/19 01:37:17;;;;;;;29.83;12.23;;;4.80;99.90;;;3.21;100.00;101906.41;4871200;28;20098;-77
2021/04/19 01:39:41;;;;;;;42.08;13.13;;;4.80;99.90;;;3.21;100.00;101909.00;4870124;28;20144;-77
2021/04/19 01:42:05;;;;;;;45.78;13.27;;;4.80;99.90;;;3.22;100.00;101908.16;4872516;28;20553;-77
2021/04/19 01:44:27;;;;;;;40.55;12.90;;;4.80;99.90;;;3.21;100.00;101904.66;4869287;28;20091;-78
2021/04/19 01:46:50;;;;;;;45.35;12.05;;;4.80;99.90;;;3.19;100.00;101898.59;4868574;28;20427;-78
2021/04/19 01:49:16;;;;;;;42.85;12.02;;;4.80;99.90;;;3.21;100.00;101903.81;4870628;28;20101;-78
2021/04/19 01:51:39;;;;;;;29.05;11.43;;;4.70;99.90;;;3.22;100.00;101906.44;4861180;28;20132;-79
2021/04/19 01:54:02;;;;;;;26.50;11.18;;;4.80;99.90;;;3.21;100.00;101906.41;4869664;28;20090;-78
2021/04/19 01:56:27;;;;;;;33.33;11.93;;;4.80;99.90;;;3.18;100.00;101898.59;4870393;28;20087;-77
2021/04/19 01:58:50;;;;;;;31.75;12.52;;;4.70;99.90;;;3.20;100.00;101902.94;4871270;28;20095;-78
2021/04/19 02:01:12;;;;;;;41.13;13.85;;;4.70;99.90;;;3.14;100.00;101902.06;4871471;28;20088;-76
2021/04/19 02:04:00;;;;;;;42.00;12.10;;;4.70;99.90;;;3.03;100.00;101902.03;4871641;28;20103;-78
2021/04/19 02:06:35;;;;;;;44.60;12.90;;;4.60;99.90;;;2.98;100.00;101899.41;4862126;28;20152;-78
2021/04/19 02:09:05;;;;;;;49.73;14.27;;;4.60;99.90;;;2.97;100.00;101889.00;4871420;28;20537;-78
2021/04/19 02:11:44;;;;;;;40.40;11.98;;;4.50;99.90;;;2.85;100.00;101892.41;4869833;28;20489;-77
2021/04/19 02:14:26;;;;;;;35.15;12.95;;;4.50;99.90;;;2.87;100.00;101893.28;4854379;28;20472;-78
2021/04/19 02:16:59;;;;;;;39.75;13.00;;;4.50;99.90;;;2.86;100.00;101889.81;4861371;28;20106;-74
2021/04/19 02:19:38;;;;;;;33.40;12.43;;;4.40;99.90;;;2.86;100.00;101886.34;4852499;28;20536;-78
2021/04/19 02:22:10;;;;;;;42.90;13.80;;;4.50;99.90;;;2.86;100.00;101892.41;4868933;28;20091;-75
2021/04/19 02:24:40;;;;;;;35.95;13.30;;;4.50;99.90;;;2.88;100.00;101897.63;4868162;28;20144;-77
2021/04/19 02:27:10;;;;;;;38.97;12.10;;;4.40;99.90;;;2.73;100.00;101893.22;4855175;28;20091;-77
2021/04/19 02:29:38;;;;;;;37.25;12.50;;;4.30;99.90;;;2.64;100.00;101899.25;4861011;28;20114;-77
2021/04/19 02:32:05;;;;;;;35.78;12.63;;;4.20;99.90;;;2.52;100.00;101888.78;4850746;28;20094;-77
2021/04/19 02:34:32;;;;;;;27.98;11.25;;;4.10;99.90;;;2.49;100.00;101891.38;4869900;28;20097;-77
2021/04/19 02:36:56;;;;;;;30.13;11.35;;;4.00;99.90;;;2.37;100.00;101894.75;4863159;28;20550;-78
2021/04/19 02:39:20;;;;;;;28.88;11.10;;;3.90;99.90;;;2.25;100.00;101895.56;4870591;28;20084;-78
2021/04/19 02:41:43;;;;;;;30.95;10.48;;;3.80;99.90;;;2.05;100.00;101902.34;4870387;28;20113;-77
2021/04/19 02:44:09;;;;;;;29.10;10.20;;;3.70;99.90;;;2.03;100.00;101901.47;4869647;28;20140;-77
2021/04/19 02:46:34;;;;;;;30.83;10.75;;;3.60;99.90;;;1.96;100.00;101899.69;4869231;28;20098;-78
2021/04/19 02:48:58;;;;;;;25.33;9.90;;;3.60;99.90;;;1.93;100.00;101895.34;4868304;28;20086;-78
2021/04/19 02:51:22;;;;;;;28.35;9.82;;;3.60;99.90;;;1.97;100.00;101893.66;4867916;28;20154;-78
2021/04/19 02:53:47;;;;;;;21.67;9.13;;;3.60;99.90;;;1.89;100.00;101900.50;4870882;28;20088;-78
2021/04/19 02:56:10;;;;;;;22.45;8.50;;;3.40;99.90;;;1.61;100.00;101910.66;4867850;28;20083;-77
2021/04/19 02:58:41;;;;;;;23.70;8.20;;;3.20;99.90;;;1.48;100.00;101907.06;4869912;28;20101;-77
2021/04/19 03:01:06;;;;;;;24.45;9.23;;;3.10;99.90;;;1.40;100.00;101913.91;4869436;28;20103;-78
2021/04/19 03:03:30;;;;;;;;;;;3.20;99.90;;;1.35;100.00;101913.00;4869313;28;20088;-80
2021/04/19 03:05:55;;;;;;;21.08;8.10;;;3.00;99.90;;;1.33;100.00;101905.19;4867815;28;19962;-77
2021/04/19 03:08:21;;;;;;;47.08;8.27;;;2.90;99.90;;;1.22;100.00;101912.00;4869942;28;20091;-78
2021/04/19 03:10:50;;;;;;;24.35;8.20;;;2.90;99.90;;;1.21;100.00;101908.53;4849778;28;20272;-77
2021/04/19 03:13:14;;;;;;;25.83;9.00;;;2.90;99.90;;;1.20;100.00;101899.00;4868899;28;20074;-78
2021/04/19 03:15:40;;;;;;;26.52;8.63;;;2.90;99.90;;;1.25;100.00;101898.16;4869418;28;20101;-78
2021/04/19 03:18:07;;;;;;;41.83;9.98;;;2.90;99.90;;;1.16;100.00;101906.72;4870222;28;20084;-78
2021/04/19 03:20:46;;;;;;;61.15;8.38;;;2.80;99.90;;;1.07;100.00;101898.84;4867691;28;20091;-77
2021/04/19 03:23:11;;;;;;;55.25;8.10;;;2.70;99.90;;;1.02;100.00;101899.66;4870744;28;20612;-77
2021/04/19 03:25:34;;;;;;;32.15;9.20;;;2.70;99.90;;;1.03;100.00;101901.38;4868551;28;20087;-78
2021/04/19 03:27:58;;;;;;;19.58;8.25;;;2.80;99.90;;;1.10;100.00;101894.56;4867225;28;20562;-77
2021/04/19 03:30:22;;;;;;;18.52;8.57;;;2.90;99.90;;;1.20;100.00;101888.59;4870535;28;20427;-77
2021/04/19 03:32:51;;;;;;;19.02;9.35;;;3.00;99.90;;;1.35;100.00;101889.63;4868841;28;20087;-77
2021/04/19 03:35:18;;;;;;;19.33;9.32;;;3.10;99.90;;;1.42;100.00;101889.69;4869489;28;20094;-77
2021/04/19 03:37:46;;;;;;;24.63;9.40;;;3.10;99.90;;;1.46;100.00;101887.16;4868404;28;20129;-77
2021/04/19 03:40:17;;;;;;;17.05;9.75;;;3.10;99.90;;;1.50;100.00;101894.09;4869828;28;20092;-78
2021/04/19 03:42:42;;;;;;;25.13;11.10;;;3.20;99.90;;;1.55;100.00;101888.09;4868657;28;20683;-78
2021/04/19 03:45:08;;;;;;;32.80;12.27;;;3.20;99.90;;;1.64;100.00;101895.09;4869343;28;20095;-77
2021/04/19 03:47:32;;;;;;;34.92;13.68;;;3.40;99.90;;;1.75;100.00;101885.69;4868540;28;20459;-77
2021/04/19 03:49:59;;;;;;;22.00;10.63;;;3.50;99.90;;;1.93;100.00;101886.69;4869382;28;20096;-78
2021/04/19 03:52:29;;;;;;;45.85;15.70;;;3.70;99.90;;;2.11;100.00;101886.81;4869198;28;20087;-80
2021/04/19 03:54:53;;;;;;;35.78;16.85;;;3.80;99.90;;;2.23;100.00;101880.84;4870077;28;20097;-78
2021/04/19 03:57:20;;;;;;;43.85;16.30;;;3.80;99.90;;;2.23;100.00;101886.91;4866514;28;20126;-78
2021/04/19 03:59:46;;;;;;;37.70;17.38;;;3.90;99.90;;;2.22;100.00;101885.13;4869622;28;20102;-78
2021/04/19 04:02:11;;;;;;;39.05;17.30;;;3.90;99.90;;;2.25;100.00;101890.38;4869542;28;20084;-78
2021/04/19 04:04:34;;;;;;;39.28;16.65;;;3.90;99.90;;;2.28;100.00;101886.91;4870598;28;20101;-78
2021/04/19 04:06:58;;;;;;;45.55;17.35;;;3.90;99.90;;;2.24;100.00;101879.97;4867578;28;20091;-78
2021/04/19 04:09:22;;;;;;;56.97;19.00;;;3.80;99.90;;;2.12;100.00;101883.38;4870652;28;20074;-78
2021/04/19 04:11:46;;;;;;;40.80;15.63;;;3.80;99.90;;;2.08;100.00;101886.78;4867794;28;20497;-76
2021/04/19 04:14:10;;;;;;;37.92;16.35;;;3.60;99.90;;;1.95;100.00;101887.56;4870551;28;20091;-78
2021/04/19 04:16:33;;;;;;;34.00;14.57;;;3.60;99.90;;;1.98;100.00;101890.19;4869631;28;20098;-75
2021/04/19 04:18:56;;;;;;;34.65;15.07;;;3.70;99.90;;;2.03;100.00;101891.06;4870647;28;20093;-77
2021/04/19 04:21:19;;;;;;;33.78;13.80;;;3.70;99.90;;;2.09;100.00;101896.31;4870416;28;20141;-76
2021/04/19 04:23:43;;;;;;;35.88;13.82;;;3.70;99.90;;;2.17;100.00;101892.06;4870493;28;20485;-78
2021/04/19 04:26:07;;;;;;;33.38;14.15;;;3.90;99.90;;;2.29;100.00;101898.19;4869285;28;20098;-77
2021/04/19 04:28:30;;;;;;;30.08;13.77;;;4.00;99.90;;;2.39;100.00;101897.38;4869747;28;20093;-77
2021/04/19 04:30:53;;;;;;;35.90;13.20;;;4.00;99.90;;;2.45;100.00;101900.88;4869281;28;20099;-77
2021/04/19 04:33:16;;;;;;;35.20;12.93;;;4.10;99.90;;;2.51;100.00;101897.47;4869704;28;20133;-78
2021/04/19 04:35:39;;;;;;;29.95;11.93;;;4.20;99.90;;;2.63;100.00;101891.44;4869493;28;20165;-77
2021/04/19 04:38:03;;;;;;;37.78;13.52;;;4.30;99.90;;;2.77;100.00;101888.94;4867365;28;20085;-77
2021/04/19 04:40:26;;;;;;;31.48;12.40;;;4.50;99.90;;;2.98;100.00;101885.50;4870742;28;20108;-78
2021/04/19 04:42:55;;;;;;;34.42;12.57;;;4.60;99.90;;;3.03;100.00;101883.81;4868719;28;20079;-77
2021/04/19 04:45:18;;;;;;;37.92;12.25;;;4.70;99.90;;;3.31;100.00;101876.94;4869941;28;20485;-78
2021/04/19 04:47:49;;;;;;;30.77;12.25;;;5.10;99.90;;;3.64;100.00;101880.44;4868700;28;20096;-78
2021/04/19 04:50:15;;;;;;;30.27;11.43;;;;;;;3.95;100.00;101878.69;4869012;28;20556;-77
2021/04/19 04:52:45;;;;;;;35.30;11.55;;;5.70;99.90;;;4.21;99.36;101873.47;4869556;28;20078;-77
2021/04/19 04:55:12;;;;;;;32.55;10.65;;;5.80;99.90;;;4.31;97.98;101872.56;4867867;28;20436;-77
2021/04/19 04:57:37;;;;;;;30.05;11.43;;;6.00;99.90;;;4.54;96.80;101871.63;4867380;28;20428;-78
2021/04/19 05:00:03;;;;;;;23.75;11.10;;;6.20;99.90;;;4.63;95.44;101874.22;4868682;28;20097;-76
2021/04/19 05:02:27;;;;;;;44.55;11.73;;;6.40;99.90;;;4.95;94.60;101873.22;4869315;28;20085;-77
2021/04/19 05:04:52;;;;;;;35.10;11.27;;;6.70;99.90;;;4.91;94.32;101874.09;4869913;28;20105;-78
2021/04/19 05:07:16;;;;;;;33.20;10.95;;;7.00;99.90;;;5.42;93.52;101861.63;4868335;28;20097;-78
2021/04/19 05:09:39;;;;;;;28.10;11.13;;;7.30;99.90;;;5.68;92.88;101868.38;4868651;28;20085;-78
2021/04/19 05:12:04;;;;;;;26.80;10.35;;;7.70;99.90;;;6.35;89.69;101873.03;4869266;28;20081;-77
2021/04/19 05:14:27;;;;;;;28.38;9.35;;;;;;;6.49;88.44;101875.47;4869918;28;20088;-77
2021/04/19 05:16:50;;;;;;;20.13;7.68;;;8.20;99.90;;;6.42;89.18;101883.44;4869833;28;20601;-78
2021/04/19 05:19:13;;;;;;;19.05;6.68;;;8.30;99.90;;;6.29;87.69;101874.84;4867872;28;20096;-77
2021/04/19 05:21:37;;;;;;;18.92;6.57;;;8.30;99.90;;;6.66;87.77;101867.44;4851099;28;20089;-78
2021/04/19 05:24:00;;;;;;;20.27;5.93;;;8.30;99.90;;;6.45;87.88;101873.78;4860330;28;20483;-77
2021/04/19 05:26:23;;;;;;;18.40;5.45;;;8.60;99.90;;;7.03;85.29;101873.94;4871484;28;20084;-78
2021/04/19 05:28:46;;;;;;;11.18;4.95;;;8.60;99.90;;;6.89;85.25;101872.38;4871037;28;20094;-78
2021/04/19 05:31:11;;;;;;;20.08;6.25;;;8.70;99.90;;;6.77;85.83;101873.38;4853614;28;20089;-77
2021/04/19 05:33:35;;;;;;;14.10;5.28;;;8.60;99.90;;;6.67;85.58;101877.00;4852686;28;20661;-77
2021/04/19 05:35:57;;;;;;;14.43;4.75;;;8.60;99.90;;;6.64;85.17;101877.03;4853249;28;20454;-77
2021/04/19 05:38:23;;;;;;;9.00;4.38;;;8.50;99.90;;;6.80;84.92;101880.34;4850499;28;20082;-79
2021/04/19 05:40:46;;;;;;;13.45;4.35;;;8.60;99.90;;;6.47;85.89;101879.00;4871994;28;20077;-78
2021/04/19 05:43:09;;;;;;;19.75;4.78;;;8.70;99.90;;;6.88;85.11;101875.00;4871083;28;20122;-77
2021/04/19 05:45:33;;;;;;;14.18;4.22;;;9.00;99.90;;;7.36;82.83;101868.25;4870613;28;20096;-77
2021/04/19 05:47:56;;;;;;;12.25;4.25;;;9.20;99.90;;;7.68;81.07;101869.47;4871156;28;20090;-78
2021/04/19 05:50:24;;;;;;;12.52;3.78;;;9.50;99.90;;;8.22;78.95;101868.53;4872768;28;20093;-78
2021/04/19 05:52:50;;;;;;;13.30;3.80;;;10.10;99.90;;;9.12;76.85;101868.50;4872136;28;20084;-78
2021/04/19 05:55:16;;;;;;;12.85;2.92;;;10.50;99.90;;;9.50;73.74;101871.13;4870530;28;20540;-78
2021/04/19 05:57:46;;;;;;;12.35;3.63;;;10.60;99.90;;;8.50;77.13;101886.44;4869860;28;20412;-77
2021/04/19 06:00:20;;;;;;;13.73;3.05;;;10.40;99.90;;;8.89;75.38;101873.38;4870597;28;20488;-78
2021/04/19 06:02:55;;;;;;;12.30;3.58;;;10.70;99.90;;;9.49;72.96;101872.91;4870580;28;20052;-79
2021/04/19 06:05:26;;;;;;;11.63;3.40;;;10.90;99.90;;;9.57;74.70;101878.00;4870098;28;20679;-79
2021/04/19 06:07:59;;;;;;;14.68;3.47;;;11.60;99.90;;;10.57;70.90;101870.16;4870785;28;20053;-78
2021/04/19 06:10:27;;;;;;;11.85;3.58;;;11.40;99.90;;;10.07;72.27;101873.22;4869701;28;20077;-78
2021/04/19 06:12:53;;;;;;;15.88;3.13;;;11.30;99.90;;;9.82;72.21;101886.97;4870599;28;20072;-78
2021/04/19 06:15:17;;;;;;;11.50;3.42;;;10.90;99.90;;;9.23;73.41;101877.00;4870180;28;20042;-79
2021/04/19 06:17:46;;;;;;;11.55;2.92;;;10.80;99.90;;;9.48;74.47;101883.44;4870677;28;20041;-77
2021/04/19 06:20:12;;;;;;;10.05;3.00;;;10.50;99.90;;;8.68;75.49;101885.19;4867271;28;20103;-78
2021/04/19 06:22:36;;;;;;;;;;;10.30;99.90;;;7.71;78.85;101894.75;4871765;28;20091;-77
2021/04/19 06:24:58;;;;;;;14.88;3.30;;;9.40;99.90;;;7.27;79.27;101889.31;4872317;28;19957;-77
2021/04/19 06:27:23;;;;;;;17.75;3.55;;;9.10;99.90;;;7.45;80.40;101882.97;4869177;28;20081;-78
2021/04/19 06:29:46;;;;;;;13.80;3.60;;;9.20;99.90;;;7.88;79.79;101891.88;4869297;28;20086;-77
2021/04/19 06:32:11;;;;;;;14.85;3.45;;;9.30;99.90;;;7.88;80.37;101887.50;4872149;28;22916;-78
2021/04/19 06:34:34;;;;;;;11.93;3.10;;;9.20;99.90;;;7.74;81.58;101886.88;4870836;28;20078;-79
2021/04/19 06:36:57;;;;;;;15.32;3.55;;;9.30;99.90;;;7.68;81.10;101889.59;4871050;28;20496;-78
2021/04/19 06:39:21;;;;;;;11.65;3.63;;;9.50;99.90;;;8.35;78.96;101884.94;4867981;28;20093;-78
2021/04/19 06:41:45;;;;;;;9.40;3.15;;;10.00;99.90;;;9.27;76.87;101879.56;4871090;28;20084;-77
2021/04/19 06:44:08;;;;;;;12.23;3.17;;;10.70;99.90;;;9.37;74.22;101876.69;4870156;28;20085;-78
2021/04/19 06:46:34;;;;;;;14.05;3.17;;;11.20;99.90;;;10.39;70.09;101877.66;4870134;28;20087;-78
2021/04/19 06:48:57;;;;;;;14.27;3.38;;;11.50;99.90;;;10.94;71.21;101880.47;4869581;28;20049;-77
2021/04/19 06:51:21;;;;;;;14.65;3.65;;;12.30;99.90;;;12.13;64.44;101872.28;4869368;28;21783;-77
2021/04/19 06:53:44;;;;;;;13.05;3.00;;;12.90;99.90;;;12.48;63.37;101875.44;4871379;28;20104;-78
2021/04/19 06:56:12;;;;;;;14.52;2.88;;;13.30;99.90;;;11.14;64.75;101869.31;4869778;28;20050;-77
2021/04/19 06:58:35;;;;;;;11.07;3.10;;;13.10;99.90;;;11.74;64.75;101875.34;4870424;28;20164;-77
2021/04/19 07:00:59;;;;;;;16.55;3.47;;;12.60;99.90;;;11.60;67.44;101875.78;4869572;28;20041;-78
2021/04/19 07:03:22;;;;;;;11.40;3.17;;;12.90;99.90;;;11.37;65.15;101875.66;4869192;28;20045;-77
2021/04/19 07:05:45;;;;;;;13.93;3.25;;;13.20;99.90;;;12.77;63.57;101869.09;4870999;28;20049;-78
2021/04/19 07:08:26;;;;;;;14.10;3.53;;;13.20;99.90;;;12.05;64.21;101874.31;4870719;28;20481;-78
2021/04/19 07:10:55;;;;;;;10.52;3.30;;;13.40;99.90;;;11.43;62.96;101875.47;4868308;28;20096;-78
2021/04/19 07:13:20;;;;;;;6.90;3.10;;;13.10;99.90;;;11.46;64.60;101873.59;4870115;28;20080;-77
2021/04/19 07:15:47;;;;;;;10.30;3.00;;;12.80;99.90;;;11.70;65.03;101874.59;4870637;28;20456;-77
2021/04/19 07:18:10;;;;;;;18.55;3.35;;;13.10;99.90;;;12.47;60.19;101871.94;4868028;28;20052;-78
2021/04/19 07:20:33;;;;;;;12.82;3.20;;;13.40;99.90;;;12.09;62.33;101879.47;4869755;28;20056;-78
2021/04/19 07:22:56;;;;;;;10.10;3.08;;;13.50;99.90;;;12.57;59.34;101874.25;4870976;28;20480;-78
2021/04/19 07:25:19;;;;;;;11.50;3.42;;;13.80;99.90;;;12.95;57.77;101869.31;4870621;28;20049;-77
2021/04/19 07:27:42;;;;;;;8.63;3.50;;;13.90;99.90;;;13.60;56.60;101873.81;4869174;28;20068;-78
2021/04/19 07:30:09;;;;;;;12.68;3.40;;;13.30;99.90;;;11.50;66.28;101875.22;4868134;28;20050;-79
2021/04/19 07:32:39;;;;;;;14.73;3.65;;;13.40;99.90;;;13.05;60.32;101862.75;4869777;28;20099;-77
2021/04/19 07:35:05;;;;;;;11.43;3.58;;;13.70;99.90;;;12.31;58.29;101876.06;4868678;28;20072;-79
2021/04/19 07:37:28;;;;;;;10.50;3.28;;;14.00;99.90;;;12.62;59.91;101861.75;4867564;28;20513;-79
2021/04/19 07:39:51;;;;;;;11.20;2.90;;;13.90;99.90;;;13.07;57.40;101864.41;4869968;28;20080;-80
2021/04/19 07:42:19;;;;;;;7.53;2.78;;;14.70;99.90;;;15.65;53.24;101862.78;4869231;28;20037;-80
2021/04/19 07:44:43;;;;;;;11.75;3.88;;;15.40;99.90;;;13.17;54.35;101861.41;4868076;28;20045;-78
2021/04/19 07:47:27;;;;;;;10.63;3.07;;;14.20;99.90;;;14.11;53.72;101861.94;4868970;28;20131;-78
2021/04/19 07:50:19;;;;;;;12.40;3.80;;;14.50;99.90;;;14.42;53.23;101850.00;4867223;28;20048;-78
2021/04/19 07:52:58;;;;;;;10.35;2.80;;;14.30;99.90;;;12.63;56.32;101859.03;4868137;28;20052;-78
2021/04/19 07:55:24;;;;;;;8.32;2.65;;;14.00;99.90;;;13.25;55.69;101857.53;4866675;28;20164;-78
2021/04/19 07:57:47;;;;;;;9.30;3.13;;;14.00;99.90;;;11.84;59.44;101857.44;4867067;28;20044;-78
2021/04/19 08:00:23;;;;;;;12.00;3.22;;;14.00;99.90;;;13.95;54.69;101847.63;4866470;28;20065;-78
2021/04/19 08:02:57;;;;;;;10.93;3.50;;;14.50;99.90;;;13.43;55.10;101849.81;4868755;28;20396;-78
2021/04/19 08:05:52;;;;;;;7.70;2.88;;;14.20;99.90;;;12.81;57.69;101852.22;4862696;28;20115;-79
2021/04/19 08:08:18;;;;;;;7.38;2.78;;;14.20;99.90;;;14.69;52.97;101852.38;4821225;28;20045;-76
2021/04/19 08:10:58;;;;;;;9.40;3.50;;;14.30;99.90;;;13.67;54.53;101851.47;4832848;28;20485;-78
2021/04/19 08:13:25;;;;;;;10.77;3.67;;;14.40;99.90;;;14.28;52.67;101849.75;4855196;28;21705;-78
2021/04/19 08:15:54;;;;;;;11.40;3.03;;;14.40;99.90;;;14.38;54.40;101859.00;4825505;28;20042;-77
2021/04/19 08:18:20;;;;;;;6.25;2.38;;;14.90;99.90;;;15.24;50.30;101851.56;4840619;28;20048;-78
2021/04/19 08:20:51;;;;;;;10.88;2.60;;;14.90;99.90;;;15.06;50.57;101856.81;4811720;28;20091;-77
2021/04/19 08:23:54;;;;;;;4.63;2.45;;;14.90;99.90;;;14.89;50.50;101844.34;4828260;28;20462;-78
2021/04/19 08:27:14;;;;;;;10.95;2.70;;;15.10;99.90;;;16.13;47.84;101845.34;4813480;28;20061;-78
2021/04/19 08:30:17;;;;;;;9.77;2.33;;;15.80;99.90;;;14.68;50.50;101850.63;4842071;28;20114;-78
2021/04/19 08:32:51;;;;;;;8.02;2.42;;;14.80;99.90;;;14.27;51.73;101850.69;4817258;28;20053;-78
2021/04/19 08:35:32;;;;;;;10.77;3.20;;;14.70;99.90;;;14.11;54.32;101847.84;4812059;28;20058;-77
2021/04/19 08:37:59;;;;;;;10.95;2.88;;;14.30;99.90;;;13.00;54.22;101844.44;4879886;28;20136;-78
2021/04/19 08:40:24;;;;;;;11.07;2.70;;;13.20;99.90;;;13.42;54.21;101845.47;4867094;28;20128;-77
2021/04/19 08:42:47;;;;;;;14.90;2.88;;;14.20;99.90;;;14.08;53.72;101847.97;4868908;28;20049;-78
2021/04/19 08:45:12;;;;;;;6.80;2.55;;;14.60;99.90;;;13.87;53.33;101840.03;4867419;28;20111;-78
2021/04/19 08:47:37;;;;;;;14.15;2.58;;;13.80;99.90;;;12.64;56.63;101841.41;4835845;28;20049;-77
2021/04/19 08:50:06;;;;;;;16.63;3.40;;;14.00;99.90;;;13.07;55.15;101840.63;4827710;28;20119;-77
2021/04/19 08:52:52;;;;;;;8.75;3.00;;;14.10;99.90;;;12.83;55.04;101845.09;4820650;28;20054;-78
2021/04/19 08:55:44;;;;;;;7.07;2.88;;;14.00;99.90;;;13.03;57.19;101838.16;4841256;28;20405;-77
2021/04/19 08:58:15;;;;;;;8.32;2.80;;;14.20;99.90;;;13.54;56.19;101842.28;4815589;28;22203;-77
2021/04/19 09:01:30;;;;;;;10.35;3.22;;;14.50;99.90;;;13.07;54.48;101847.72;4819164;28;20062;-76
2021/04/19 09:07:30;;;;;;;9.75;2.50;;;13.70;99.90;;;11.76;60.01;101852.41;4820487;28;20393;-76
2021/04/19 09:10:21;;;;;;;10.80;2.70;;;13.40;99.90;;;12.12;57.65;101849.44;4814768;28;20464;-78
2021/04/19 09:12:56;;;;;;;9.32;2.70;;;13.40;99.90;;;12.00;58.43;101844.59;4815097;28;20057;-76
2021/04/19 09:19:11;;;;;;;10.93;2.50;;;13.30;99.90;;;11.69;58.09;101857.03;4822936;28;20553;-76
2021/04/19 09:21:48;;;;;;;11.10;3.10;;;13.50;99.90;;;12.50;58.70;101853.38;4818955;28;20097;-76
2021/04/19 09:24:32;;;;;;;8.77;2.50;;;13.60;99.90;;;11.54;60.31;101869.84;4820649;28;20499;-77
2021/04/19 09:28:01;;;;;;;7.78;2.85;;;13.90;99.90;;;12.68;54.54;101858.88;4821428;28;20482;-76
2021/04/19 09:30:44;;;;;;;5.47;2.17;;;14.00;99.90;;;12.58;55.61;101846.94;4832147;28;20412;-75
2021/04/19 09:33:24;;;;;;;7.15;1.88;;;14.00;99.90;;;12.58;54.65;101849.56;4822280;28;20045;-75
2021/04/19 09:43:42;;;;;;;14.02;2.80;;;12.90;99.90;;;11.47;59.84;101853.38;4827485;28;20124;-77
2021/04/19 09:50:35;;;;;;;11.98;2.55;;;13.20;99.90;;;11.76;60.36;101835.72;4827146;28;20511;-78
2021/04/19 09:53:17;;;;;;;10.48;3.08;;;13.10;99.90;;;11.84;58.38;101828.41;4808534;28;20046;-77
2021/04/19 09:59:27;;;;;;;7.32;2.47;;;13.20;99.90;;;11.94;58.88;101827.19;4821907;28;20041;-76
2021/04/19 10:06:58;;;;;;;9.98;2.20;;;12.70;99.90;;;11.38;62.48;101830.81;4820663;28;20589;-76
2021/04/19 10:09:54;;;;;;;6.95;2.47;;;12.80;99.90;;;11.38;58.93;101824.63;4825630;28;20042;-78
2021/04/19 10:16:49;;;;;;;5.78;2.40;;;13.10;99.90;;;12.06;58.61;101821.47;4811864;28;20041;-76
2021/04/19 10:27:13;;;;;;;9.98;3.00;;;12.70;99.90;;;11.52;60.78;101811.88;4797509;28;20088;-76
2021/04/19 10:29:44;;;;;;;7.40;2.40;;;13.10;99.90;;;12.04;59.78;101803.97;4802477;28;20419;-77
2021/04/19 10:32:16;;;;;;;9.35;2.55;;;13.00;99.90;;;11.50;59.32;101809.28;4817182;28;20530;-77
2021/04/19 10:35:54;;;;;;;9.35;2.33;;;13.00;99.90;;;11.09;61.68;101803.56;4789944;28;20783;-77
2021/04/19 10:38:56;;;;;;;10.20;2.38;;;12.80;99.90;;;11.42;60.07;101810.44;4831798;28;20046;-78
2021/04/19 10:42:06;;;;;;;5.80;2.42;;;12.90;99.90;;;11.34;57.82;101801.91;4811413;28;20427;-77
2021/04/19 10:45:20;;;;;;;12.10;2.53;;;12.70;99.90;;;10.83;62.16;101796.47;4825941;28;21052;-74
2021/04/19 10:47:43;;;;;;;7.93;2.03;;;12.50;99.90;;;10.68;58.58;101792.53;4857788;28;20580;-77
2021/04/19 10:50:08;;;;;;;11.23;2.55;;;12.40;99.90;;;11.22;60.61;101792.66;4863324;28;20080;-77
2021/04/19 10:52:31;;;;;;;9.57;2.15;;;13.00;99.90;;;11.43;57.34;101796.38;4869944;28;20037;-75
2021/04/19 10:54:55;;;;;;;10.82;2.40;;;12.80;99.90;;;11.39;58.23;101792.94;4870231;28;20064;-77
2021/04/19 10:57:23;;;;;;;8.85;2.13;;;12.80;99.90;;;11.47;58.60;101792.72;4868154;28;20057;-74